createdAt,value
2019-02-21T00:02:57.516Z,9.37
2019-02-21T00:08:02.951Z,9.40
2019-02-21T00:13:08.434Z,9.37
2019-02-21T00:18:13.846Z,9.27
2019-02-21T00:23:19.248Z,9.12
2019-02-21T00:28:24.747Z,8.97
2019-02-21T00:33:30.151Z,8.84
2019-02-21T00:38:35.746Z,8.73
2019-02-21T00:43:41.194Z,8.62
2019-02-21T00:48:46.597Z,8.52
2019-02-21T00:53:52.059Z,8.46
2019-02-21T00:58:57.520Z,8.40
2019-02-21T01:04:02.882Z,8.33
2019-02-21T01:09:08.253Z,8.25
2019-02-21T01:14:13.721Z,8.21
2019-02-21T01:19:19.151Z,8.17
2019-02-21T01:24:24.563Z,8.15
2019-02-21T01:29:29.981Z,8.14
2019-02-21T01:34:35.434Z,8.24
2019-02-21T01:39:40.953Z,8.39
2019-02-21T01:44:46.383Z,8.58
2019-02-21T01:49:52.020Z,8.74
2019-02-21T01:54:57.448Z,8.92
2019-02-21T02:00:03.155Z,9.11
2019-02-21T02:05:08.985Z,9.24
2019-02-21T02:10:14.382Z,9.33
2019-02-21T02:15:19.892Z,9.42
2019-02-21T02:20:25.319Z,9.49
2019-02-21T02:25:30.696Z,9.55
2019-02-21T02:30:36.058Z,9.59
2019-02-21T02:35:41.460Z,9.64
2019-02-21T02:40:46.915Z,9.67
2019-02-21T02:45:52.451Z,9.69
2019-02-21T02:50:57.836Z,9.73
2019-02-21T02:56:03.340Z,9.80
2019-02-21T03:01:08.771Z,9.85
2019-02-21T03:06:14.148Z,9.89
2019-02-21T03:11:19.607Z,9.94
2019-02-21T03:16:25.073Z,9.99
2019-02-21T03:21:30.555Z,10.02
2019-02-21T03:26:35.954Z,10.05
2019-02-21T03:31:53.343Z,10.10
2019-02-21T03:36:48.740Z,10.11
2019-02-21T03:41:54.109Z,10.12
2019-02-21T03:46:59.480Z,10.15
2019-02-21T03:52:04.862Z,10.17
2019-02-21T03:57:10.322Z,10.20
2019-02-21T04:02:15.708Z,10.24
2019-02-21T04:07:21.921Z,10.25
2019-02-21T04:12:27.550Z,10.23
2019-02-21T04:17:32.969Z,10.22
2019-02-21T04:22:38.380Z,10.24
2019-02-21T04:27:43.822Z,10.20
2019-02-21T04:32:49.220Z,10.17
2019-02-21T04:37:54.636Z,10.16
2019-02-21T04:43:00.223Z,10.09
2019-02-21T04:48:05.596Z,10.00
2019-02-21T04:53:11.005Z,9.94
2019-02-21T04:58:16.395Z,9.85
2019-02-21T05:03:21.805Z,9.77
2019-02-21T05:08:27.199Z,9.68
2019-02-21T05:13:33.783Z,9.55
2019-02-21T05:18:39.338Z,9.40
2019-02-21T05:23:44.723Z,9.22
2019-02-21T05:28:50.163Z,9.06
2019-02-21T05:34:14.448Z,8.94
2019-02-21T05:39:50.791Z,8.85
2019-02-21T05:45:27.277Z,8.77
2019-02-21T05:50:41.581Z,8.75
2019-02-21T05:56:08.910Z,8.74
2019-02-21T06:01:31.981Z,8.74
2019-02-21T06:06:54.818Z,8.70
2019-02-21T06:12:17.828Z,8.64
2019-02-21T06:17:40.759Z,8.57
2019-02-21T06:23:17.082Z,8.50
2019-02-21T06:28:29.878Z,8.44
2019-02-21T06:33:35.505Z,8.43
2019-02-21T06:38:41.071Z,8.42
2019-02-21T06:43:46.513Z,8.43
2019-02-21T06:48:51.891Z,8.48
2019-02-21T06:53:57.370Z,8.57
2019-02-21T06:59:02.952Z,8.69
2019-02-21T07:04:08.480Z,8.82
2019-02-21T07:09:14.048Z,8.90
2019-02-21T07:14:19.488Z,8.96
2019-02-21T07:19:24.985Z,9.04
2019-02-21T07:24:30.751Z,9.13
2019-02-21T07:29:38.741Z,9.29
2019-02-21T07:34:43.307Z,9.47
2019-02-21T07:39:50.850Z,9.67
2019-02-21T07:44:55.938Z,9.92
2019-02-21T07:50:01.295Z,10.55
2019-02-21T07:55:07.007Z,11.49
2019-02-21T08:00:12.703Z,12.47
2019-02-21T08:05:18.081Z,13.22
2019-02-21T08:10:33.170Z,14.02
2019-02-21T08:15:30.603Z,14.90
2019-02-21T08:20:40.907Z,15.74
2019-02-21T08:25:43.023Z,16.69
2019-02-21T08:30:48.486Z,17.45
2019-02-21T08:35:54.355Z,17.98
2019-02-21T08:40:59.796Z,18.09
2019-02-21T08:46:05.338Z,18.33
2019-02-21T08:51:10.727Z,18.24
2019-02-21T08:56:16.347Z,18.06
2019-02-21T09:01:21.851Z,18.64
2019-02-21T09:06:27.238Z,19.30
2019-02-21T09:11:35.485Z,20.31
2019-02-21T09:16:41.079Z,20.64
2019-02-21T09:21:46.471Z,20.21
2019-02-21T09:26:52.020Z,20.14
2019-02-21T09:31:57.445Z,20.53
2019-02-21T09:37:05.353Z,20.20
2019-02-21T09:42:09.927Z,19.53
2019-02-21T09:47:15.310Z,18.86
2019-02-21T09:52:20.713Z,18.26
2019-02-21T09:57:26.275Z,17.74
2019-02-21T10:02:31.646Z,17.56
2019-02-21T10:07:37.270Z,17.74
2019-02-21T10:12:42.785Z,18.11
2019-02-21T10:17:50.756Z,18.35
2019-02-21T10:22:55.307Z,18.50
2019-02-21T10:28:00.721Z,18.70
2019-02-21T10:33:06.279Z,18.94
2019-02-21T10:38:11.739Z,18.87
2019-02-21T10:43:17.134Z,18.61
2019-02-21T10:48:22.523Z,18.60
2019-02-21T10:53:27.936Z,18.76
2019-02-21T10:58:33.437Z,18.93
2019-02-21T11:03:38.856Z,18.76
2019-02-21T11:08:44.271Z,18.44
2019-02-21T11:13:49.688Z,18.41
2019-02-21T11:18:55.133Z,18.44
2019-02-21T11:24:00.596Z,18.35
2019-02-21T11:29:06.257Z,18.51
2019-02-21T11:34:11.759Z,18.97
2019-02-21T11:39:17.424Z,19.30
2019-02-21T11:44:22.823Z,19.48
2019-02-21T11:49:28.321Z,19.45
2019-02-21T11:54:33.836Z,19.36
2019-02-21T11:59:39.305Z,19.52
2019-02-21T12:04:46.497Z,19.69
2019-02-21T12:09:51.916Z,19.78
2019-02-21T12:14:57.288Z,19.83
2019-02-21T12:20:02.925Z,19.74
2019-02-21T12:25:10.887Z,19.59
2019-02-21T12:30:18.014Z,19.46
2019-02-21T12:35:29.664Z,19.48
2019-02-21T12:40:30.802Z,19.60
2019-02-21T12:45:36.221Z,19.72
2019-02-21T12:50:44.510Z,19.97
2019-02-21T12:55:48.815Z,20.15
2019-02-21T13:00:54.431Z,19.92
2019-02-21T13:05:59.879Z,19.60
2019-02-21T13:11:05.355Z,19.59
2019-02-21T13:16:10.841Z,19.48
2019-02-21T13:21:16.289Z,19.23
2019-02-21T13:26:21.894Z,18.94
2019-02-21T13:31:27.260Z,18.90
2019-02-21T13:36:34.002Z,18.81
2019-02-21T13:41:39.820Z,18.76
2019-02-21T13:46:45.224Z,18.78
2019-02-21T13:51:50.779Z,18.89
2019-02-21T13:56:56.166Z,19.03
2019-02-21T14:02:01.768Z,18.99
2019-02-21T14:07:07.235Z,18.95
2019-02-21T14:12:12.733Z,18.93
2019-02-21T14:17:18.216Z,18.88
2019-02-21T14:22:23.690Z,18.70
2019-02-21T14:27:31.745Z,18.40
2019-02-21T14:32:36.399Z,18.14
2019-02-21T14:37:41.902Z,17.82
2019-02-21T14:42:47.285Z,17.63
2019-02-21T14:47:52.750Z,17.51
2019-02-21T14:52:58.562Z,17.43
2019-02-21T14:58:04.044Z,17.46
2019-02-21T15:03:21.662Z,17.57
2019-02-21T15:08:22.267Z,17.63
2019-02-21T15:13:27.920Z,17.66
2019-02-21T15:18:33.425Z,17.77
2019-02-21T15:23:38.860Z,17.78
2019-02-21T15:28:44.346Z,17.67
2019-02-21T15:33:49.880Z,17.53
2019-02-21T15:38:55.282Z,17.41
2019-02-21T15:44:00.680Z,17.30
2019-02-21T15:49:06.114Z,17.21
2019-02-21T15:54:12.514Z,17.16
2019-02-21T15:59:18.071Z,17.08
2019-02-21T16:04:23.684Z,16.97
2019-02-21T16:09:30.448Z,16.85
2019-02-21T16:14:37.707Z,16.83
2019-02-21T16:19:43.295Z,16.75
2019-02-21T16:24:48.783Z,16.66
2019-02-21T16:29:54.318Z,16.60
2019-02-21T16:34:59.925Z,16.53
2019-02-21T16:40:08.781Z,16.43
2019-02-21T16:45:15.002Z,16.30
2019-02-21T16:50:29.210Z,16.18
2019-02-21T16:55:27.681Z,16.06
2019-02-21T17:00:47.358Z,15.98
2019-02-21T18:19:40.787Z,13.42
2019-02-21T18:24:46.250Z,13.99
2019-02-21T18:29:51.700Z,14.34
2019-02-21T18:34:57.308Z,14.52
2019-02-21T18:40:02.733Z,14.60
2019-02-21T18:45:08.894Z,14.67
2019-02-21T18:50:15.868Z,14.66
2019-02-21T18:55:21.394Z,14.67
2019-02-21T19:00:27.177Z,14.72
2019-02-21T19:05:35.972Z,14.75
2019-02-21T19:24:37.058Z,15.33
2019-02-21T19:29:42.680Z,15.13
2019-02-21T19:34:48.313Z,15.03
2019-02-21T19:39:54.247Z,14.97
2019-02-21T19:45:00.000Z,14.91
2019-02-21T19:50:05.925Z,14.87
2019-02-21T19:55:11.421Z,14.84
2019-02-21T20:00:17.718Z,14.82
2019-02-21T20:05:23.284Z,14.76
2019-02-21T20:10:28.796Z,14.74
2019-02-21T20:15:34.269Z,14.73
2019-02-21T20:20:39.736Z,14.72
2019-02-21T20:25:45.167Z,14.70
2019-02-21T20:30:50.769Z,14.69
2019-02-21T20:35:56.327Z,14.69
2019-02-21T20:41:01.726Z,14.66
2019-02-21T20:46:07.150Z,14.64
2019-02-21T20:51:12.714Z,14.62
2019-02-21T20:56:18.276Z,14.60
2019-02-21T21:01:24.132Z,14.62
2019-02-21T21:06:29.659Z,14.63
2019-02-21T21:11:35.522Z,14.65
2019-02-21T21:16:41.012Z,14.66
2019-02-21T21:21:46.754Z,14.64
2019-02-21T21:26:52.401Z,14.63
2019-02-21T21:31:58.105Z,14.59
2019-02-21T21:37:03.739Z,14.58
2019-02-21T21:42:09.174Z,14.55
2019-02-21T21:47:14.735Z,14.51
2019-02-21T21:52:20.598Z,14.50
2019-02-21T21:57:26.154Z,14.49
2019-02-21T22:02:31.674Z,14.49
2019-02-21T22:07:37.070Z,14.56
2019-02-21T22:12:42.845Z,14.59
2019-02-21T22:17:48.335Z,14.58
2019-02-21T22:22:53.769Z,14.51
2019-02-21T22:27:59.165Z,14.49
2019-02-21T22:33:04.647Z,14.50
2019-02-21T22:38:10.445Z,14.51
2019-02-21T22:43:16.401Z,14.47
2019-02-21T22:48:22.026Z,14.37
2019-02-21T22:53:27.808Z,14.29
2019-02-21T22:58:33.385Z,14.25
2019-02-21T23:03:50.331Z,14.25
2019-02-21T23:08:56.261Z,14.22
2019-02-21T23:14:01.788Z,14.22
2019-02-21T23:19:07.188Z,14.22
2019-02-21T23:24:12.983Z,14.22
2019-02-21T23:29:18.434Z,14.21
2019-02-21T23:34:36.273Z,14.21
2019-02-21T23:39:41.729Z,14.20
2019-02-21T23:44:47.294Z,14.17
2019-02-21T23:49:52.866Z,14.17
2019-02-21T23:54:58.647Z,14.19
